Terminal Aerodrome Forecast
Issued by NWS

Home | Current Version | Previous Version | Text Only | Print | Product List | Glossary Off
Versions: 1 2 3 4 5 6 7 8 9 10 11 12 13 14 15 16 17 18 19 20 21 22 23

000
FTUS42 KMHX 030541
TAFOAJ
TAF
KOAJ 030541Z 0306/0406 04006KT P6SM SCT025 BKN050
     FM031600 09006KT 6SM BR VCSH OVC015
     FM040000 18008KT 5SM BR OVC005
      AMD LTD TO CLD VIS AND WIND=

USA.gov is the U.S. government's official web portal to all federal, state and local government web resources and services.